Time;durP1;ratioP1;P1;durP2;ratioP2;P2;SDS_P1;SDS_P2;PMS_P1;PMS_P2;Temp;Humidity;BMP_temperature;BMP_pressure;BME280_temperature;BME280_humidity;BME280_pressure;Samples;Min_cycle;Max_cycle;Signal;HPM_P1;HPM_P2
2023/02/22 00:02:59;;;;;;;25.20;7.20;;;;;;;5.03;88.72;100534.36;104030;1275;104509;-78
2023/02/22 00:05:52;;;;;;;19.40;5.80;;;;;;;5.01;88.93;100532.58;104228;1277;99673;-78
2023/02/22 00:08:37;;;;;;;19.00;5.30;;;;;;;5.01;88.85;100536.38;104086;1277;98712;-77
2023/02/22 00:11:22;;;;;;;19.50;5.10;;;;;;;4.98;89.05;100535.80;104090;1277;97929;-76
2023/02/22 00:14:06;;;;;;;23.90;5.10;;;;;;;4.95;89.04;100537.30;104069;1277;98455;-78
2023/02/22 00:16:51;;;;;;;23.30;7.50;;;;;;;4.92;89.10;100535.28;104056;1275;101423;-76
2023/02/22 00:19:36;;;;;;;23.80;5.30;;;;;;;4.91;89.27;100535.94;104211;1277;100496;-78
2023/02/22 00:22:21;;;;;;;16.50;5.00;;;;;;;4.89;89.19;100537.91;104342;1274;100275;-76
2023/02/22 00:25:06;;;;;;;21.60;6.40;;;;;;;4.87;89.01;100539.91;104305;1277;97908;-78
2023/02/22 00:27:51;;;;;;;23.60;6.00;;;;;;;4.83;88.86;100542.73;104354;1277;98756;-77
2023/02/22 00:30:36;;;;;;;14.10;4.90;;;;;;;4.80;88.83;100547.83;104313;1274;101420;-77
2023/02/22 00:33:22;;;;;;;21.00;5.40;;;;;;;4.79;89.06;100547.16;104392;1278;100740;-76
2023/02/22 00:36:08;;;;;;;20.70;5.60;;;;;;;4.81;89.13;100549.01;104331;1272;98029;-78
2023/02/22 00:38:53;;;;;;;18.50;5.90;;;;;;;4.81;89.02;100554.66;104279;1273;98106;-78
2023/02/22 00:41:38;;;;;;;21.70;5.80;;;;;;;4.84;89.25;100557.36;103991;1274;98431;-76
2023/02/22 00:44:22;;;;;;;14.50;4.30;;;;;;;4.85;89.28;100559.58;104039;1274;101617;-77
2023/02/22 00:47:08;;;;;;;17.60;4.20;;;;;;;4.83;89.13;100562.22;104147;1274;100346;-79
2023/02/22 00:49:53;;;;;;;27.00;5.90;;;;;;;4.79;89.08;100563.86;104122;1273;99062;-77
2023/02/22 00:52:38;;;;;;;18.40;5.50;;;;;;;4.74;89.08;100569.27;104058;1277;97909;-75
2023/02/22 00:55:27;;;;;;;19.50;4.80;;;;;;;4.70;89.01;100571.95;104353;1275;98405;-75
2023/02/22 00:58:12;;;;;;;19.20;4.40;;;;;;;4.64;88.94;100576.49;104208;1278;101308;-76
2023/02/22 01:00:57;;;;;;;22.20;6.10;;;;;;;4.60;89.11;100577.35;104501;1277;99145;-77
2023/02/22 01:03:42;;;;;;;21.80;5.00;;;;;;;4.58;88.96;100579.35;104284;1281;98996;-76
2023/02/22 01:06:28;;;;;;;14.00;4.70;;;;;;;4.58;88.98;100585.89;104010;1274;98102;-76
2023/02/22 01:09:13;;;;;;;19.70;5.30;;;;;;;4.59;88.79;100587.75;104087;1277;98430;-76
2023/02/22 01:11:59;;;;;;;19.70;5.10;;;;;;;4.58;88.82;100588.54;104049;1287;101333;-77
2023/02/22 01:14:44;;;;;;;20.90;5.10;;;;;;;4.55;88.68;100593.94;103997;1273;99103;-76
2023/02/22 01:17:29;;;;;;;21.20;5.00;;;;;;;4.52;88.69;100595.88;104415;1279;97972;-79
2023/02/22 01:20:16;;;;;;;22.90;5.60;;;;;;;4.48;88.84;100599.42;104308;1278;98560;-77
2023/02/22 01:23:05;;;;;;;20.10;5.60;;;;;;;4.43;88.79;100601.17;104368;1277;97886;-78
2023/02/22 01:25:50;;;;;;;22.80;6.00;;;;;;;4.38;88.93;100599.52;105631;1274;101850;-77
2023/02/22 01:28:36;;;;;;;24.60;5.10;;;;;;;4.36;88.99;100600.42;104367;1280;99290;-78
2023/02/22 01:31:22;;;;;;;19.80;5.00;;;;;;;4.33;89.05;100602.68;104396;1277;106644;-76
2023/02/22 01:34:07;;;;;;;19.70;5.40;;;;;;;4.27;89.22;100605.89;104348;1279;98077;-78
2023/02/22 01:36:53;;;;;;;20.70;5.80;;;;;;;4.22;89.20;100607.95;104343;1274;98513;-77
2023/02/22 01:39:38;;;;;;;18.50;5.10;;;;;;;4.18;89.13;100611.16;103991;1277;101395;-77
2023/02/22 01:42:23;;;;;;;27.00;6.20;;;;;;;4.14;89.11;100612.51;104047;1281;99310;-75
2023/02/22 01:45:31;;;;;;;18.70;5.20;;;;;;;4.12;89.23;100614.41;104170;1275;97987;-77
2023/02/22 01:48:43;;;;;;;19.70;5.10;;;;;;;4.10;89.25;100617.42;104605;1277;97998;-78
2023/02/22 01:51:36;;;;;;;23.10;5.20;;;;;;;4.08;89.37;100621.02;104100;1275;99661;-78
2023/02/22 01:54:27;;;;;;;18.10;6.20;;;;;;;4.04;89.28;100623.20;104068;1273;101570;-77
2023/02/22 01:57:22;;;;;;;19.70;5.20;;;;;;;3.99;89.12;100627.04;104031;1275;100612;-76
2023/02/22 02:00:15;;;;;;;18.40;5.60;;;;;;;3.92;89.25;100629.23;103998;1277;98435;-77
2023/02/22 02:03:13;;;;;;;29.20;6.60;;;;;;;3.85;89.49;100631.26;104012;1287;98232;-77
2023/02/22 02:06:02;;;;;;;21.20;5.90;;;;;;;3.76;89.64;100631.21;104310;1277;98496;-78
2023/02/22 02:08:57;;;;;;;23.10;5.40;;;;;;;3.71;89.88;100630.50;104488;1276;102124;-78
2023/02/22 02:11:44;;;;;;;18.40;5.40;;;;;;;3.64;89.88;100636.05;104399;1274;109949;-76
2023/02/22 02:14:30;;;;;;;27.30;6.30;;;;;;;3.59;90.03;100636.23;104400;1277;98892;-79
2023/02/22 02:17:19;;;;;;;23.60;5.90;;;;;;;3.52;90.27;100638.41;104473;1274;99183;-76
2023/02/22 02:20:14;;;;;;;20.60;5.70;;;;;;;3.50;90.49;100638.33;104305;1279;99689;-76
2023/02/22 02:23:24;;;;;;;20.30;4.90;;;;;;;3.45;90.54;100638.78;104240;1277;101372;-77
2023/02/22 02:26:15;;;;;;;18.20;4.30;;;;;;;3.40;90.60;100639.98;105120;1277;100581;-76
2023/02/22 02:29:25;;;;;;;17.70;4.40;;;;;;;3.35;90.58;100641.63;104052;1290;97981;-78
2023/02/22 02:32:26;;;;;;;18.00;4.90;;;;;;;3.29;90.42;100639.67;104190;1277;97990;-76
2023/02/22 02:35:20;;;;;;;9.60;3.70;;;;;;;3.25;90.59;100642.77;104221;1279;98506;-76
2023/02/22 02:38:24;;;;;;;14.20;3.80;;;;;;;3.21;90.60;100642.95;104339;1279;101356;-77
2023/02/22 02:41:12;;;;;;;15.10;3.70;;;;;;;3.17;90.57;100645.80;104377;1276;99586;-77
2023/02/22 02:44:14;;;;;;;11.70;3.60;;;;;;;3.13;90.51;100648.58;104167;1275;99102;-77
2023/02/22 02:47:06;;;;;;;13.00;4.10;;;;;;;3.10;90.46;100653.66;104061;1279;98768;-76
2023/02/22 02:50:02;;;;;;;11.30;4.00;;;;;;;3.05;90.51;100655.63;104099;1277;99833;-77
2023/02/22 02:52:48;;;;;;;14.70;4.00;;;;;;;3.01;90.36;100653.02;104208;1280;101300;-77
2023/02/22 02:55:35;;;;;;;13.50;3.90;;;;;;;2.97;90.42;100653.08;104264;1280;100566;-77
2023/02/22 02:58:22;;;;;;;17.10;4.10;;;;;;;2.94;90.42;100655.05;104261;1280;98030;-77
2023/02/22 03:01:07;;;;;;;8.30;3.70;;;;;;;2.93;90.33;100654.11;104335;1280;97987;-77
2023/02/22 03:04:09;;;;;;;11.80;4.10;;;;;;;2.90;90.16;100652.64;104124;1277;97876;-77
2023/02/22 03:07:29;;;;;;;12.20;3.90;;;;;;;2.85;90.16;100656.40;104119;1279;101348;-78
2023/02/22 03:10:44;;;;;;;11.40;4.70;;;;;;;2.83;90.24;100657.67;104443;1275;100408;-76
2023/02/22 03:13:51;;;;;;;12.50;3.90;;;;;;;2.84;90.30;100659.55;104267;1277;98962;-76
2023/02/22 03:17:12;;;;;;;9.40;3.00;;;;;;;2.84;90.22;100664.09;104438;1277;97994;-77
2023/02/22 03:20:05;;;;;;;8.90;3.10;;;;;;;2.82;90.13;100662.69;103753;1277;98670;-76
2023/02/22 03:22:57;;;;;;;14.00;4.10;;;;;;;2.82;90.14;100668.86;104308;1278;101399;-78
2023/02/22 03:25:48;;;;;;;18.10;3.80;;;;;;;2.84;90.09;100674.52;104420;1284;99650;-77
2023/02/22 03:28:39;;;;;;;9.70;4.00;;;;;;;2.85;89.86;100678.14;104324;1277;98415;-77
2023/02/22 03:31:30;;;;;;;11.80;4.50;;;;;;;2.85;89.45;100679.03;104365;1280;99218;-78
2023/02/22 03:34:21;;;;;;;13.30;4.00;;;;;;;2.84;89.51;100683.13;104451;1277;97888;-77
2023/02/22 03:37:20;;;;;;;9.80;3.70;;;;;;;2.83;89.40;100691.83;104415;1276;101366;-77
2023/02/22 03:40:12;;;;;;;11.50;3.20;;;;;;;2.83;89.41;100693.45;104423;1279;99853;-77
2023/02/22 03:43:12;;;;;;;12.40;4.10;;;;;;;2.83;89.53;100691.84;104324;1277;98281;-76
2023/02/22 03:46:02;;;;;;;17.90;3.60;;;;;;;2.84;89.49;100692.51;104381;1274;97911;-78
2023/02/22 03:48:57;;;;;;;9.70;3.20;;;;;;;2.84;89.58;100693.92;104433;1274;97898;-79
2023/02/22 03:51:42;;;;;;;9.50;3.10;;;;;;;2.84;89.65;100696.19;104355;1279;102600;-77
2023/02/22 03:54:31;;;;;;;11.70;3.80;;;;;;;2.85;89.59;100696.27;104467;1274;99849;-77
2023/02/22 03:57:27;;;;;;;12.40;3.70;;;;;;;2.87;89.38;100704.21;104351;1273;98977;-76
2023/02/22 04:00:24;;;;;;;10.80;3.50;;;;;;;2.88;89.22;100705.55;104202;1279;98077;-78
2023/02/22 04:03:10;;;;;;;10.40;3.00;;;;;;;2.88;89.08;100707.65;104467;1277;98494;-76
2023/02/22 04:05:55;;;;;;;7.30;3.20;;;;;;;2.87;88.96;100714.77;104412;1274;102627;-77
2023/02/22 04:08:42;;;;;;;7.20;2.80;;;;;;;2.86;89.01;100712.62;104379;1279;99233;-76
2023/02/22 04:11:28;;;;;;;9.10;3.30;;;;;;;2.85;89.01;100712.12;104478;1277;98063;-77
2023/02/22 04:14:13;;;;;;;7.20;3.20;;;;;;;2.84;88.79;100716.27;104391;1278;98514;-77
2023/02/22 04:16:58;;;;;;;7.60;2.80;;;;;;;2.83;88.84;100717.93;104049;1273;98007;-76
2023/02/22 04:19:44;;;;;;;9.80;2.70;;;;;;;2.82;88.82;100722.09;104384;1279;101318;-76
2023/02/22 04:22:30;;;;;;;10.00;3.00;;;;;;;2.80;88.73;100729.55;104365;1279;99789;-77
2023/02/22 04:25:15;;;;;;;7.90;3.10;;;;;;;2.80;88.99;100733.20;104381;1287;99305;-77
2023/02/22 04:28:02;;;;;;;7.50;3.80;;;;;;;2.81;89.01;100733.29;104491;1279;97904;-76
2023/02/22 04:31:00;;;;;;;6.70;2.50;;;;;;;2.82;89.10;100729.27;104208;1278;97979;-78
2023/02/22 04:33:46;;;;;;;8.00;3.20;;;;;;;2.84;89.08;100736.77;104497;1281;102669;-76
2023/02/22 04:36:34;;;;;;;10.80;3.40;;;;;;;2.85;88.86;100736.17;104429;1273;99141;-77
2023/02/22 04:39:19;;;;;;;6.50;2.90;;;;;;;2.84;88.87;100733.55;104345;1287;99673;-76
2023/02/22 04:42:04;;;;;;;9.80;4.10;;;;;;;2.85;89.05;100733.30;104339;1287;98108;-76
2023/02/22 04:44:49;;;;;;;7.50;2.80;;;;;;;2.85;88.92;100734.87;104318;1276;98577;-77
2023/02/22 04:47:38;;;;;;;9.20;3.50;;;;;;;2.84;88.77;100738.66;104180;1273;102630;-76
2023/02/22 04:50:23;;;;;;;9.40;3.30;;;;;;;2.83;88.84;100744.41;104413;1277;108894;-77
2023/02/22 04:53:09;;;;;;;9.40;2.60;;;;;;;2.83;88.91;100744.79;104416;1274;98627;-75
2023/02/22 04:55:55;;;;;;;6.40;2.60;;;;;;;2.82;88.78;100746.27;104362;1278;98052;-77
2023/02/22 04:58:40;;;;;;;5.50;2.20;;;;;;;2.82;88.81;100747.19;104392;1277;98520;-77
2023/02/22 05:01:24;;;;;;;12.90;6.00;;;;;;;2.81;88.77;100747.41;104396;1276;103134;-77
2023/02/22 05:04:09;;;;;;;6.70;3.60;;;;;;;2.82;88.84;100747.91;104407;1276;100444;-77
2023/02/22 05:06:54;;;;;;;12.90;3.70;;;;;;;2.81;88.77;100749.73;104464;1276;99072;-76
2023/02/22 05:09:39;;;;;;;8.90;4.90;;;;;;;2.81;89.04;100748.60;104447;1277;96415;-76
2023/02/22 05:12:26;;;;;;;11.30;4.70;;;;;;;2.84;89.06;100748.23;104474;1276;98528;-76
2023/02/22 05:15:16;;;;;;;12.40;4.10;;;;;;;2.85;89.19;100745.09;104327;1280;101222;-76
2023/02/22 05:18:01;;;;;;;10.70;3.70;;;;;;;2.85;88.95;100750.92;104425;1277;100074;-76
2023/02/22 05:20:46;;;;;;;10.40;3.90;;;;;;;2.85;88.86;100752.04;104428;1277;99071;-77
2023/02/22 05:23:32;;;;;;;14.40;4.30;;;;;;;2.84;88.96;100749.12;104428;1278;97905;-77
2023/02/22 05:26:17;;;;;;;10.90;3.90;;;;;;;2.82;88.79;100748.19;104464;1273;98048;-75
2023/02/22 05:29:02;;;;;;;8.10;3.70;;;;;;;2.82;88.89;100751.61;104448;1273;102716;-77
2023/02/22 05:31:47;;;;;;;7.70;3.90;;;;;;;2.82;88.99;100755.09;104442;1273;100656;-76
2023/02/22 05:34:32;;;;;;;10.00;4.30;;;;;;;2.82;88.96;100759.30;104368;1278;98018;-76
2023/02/22 05:37:16;;;;;;;8.20;4.40;;;;;;;2.82;89.11;100764.92;104416;1274;99239;-76
2023/02/22 05:40:01;;;;;;;7.20;4.10;;;;;;;2.83;89.32;100771.77;104358;1273;98747;-75
2023/02/22 05:42:48;;;;;;;9.80;4.70;;;;;;;2.85;89.34;100777.05;104438;1277;101315;-77
2023/02/22 05:45:33;;;;;;;12.20;4.40;;;;;;;2.86;89.44;100783.85;104378;1274;99172;-75
2023/02/22 05:48:18;;;;;;;11.00;4.10;;;;;;;2.85;89.22;100789.05;104412;1277;97938;-76
2023/02/22 05:51:03;;;;;;;10.80;4.60;;;;;;;2.84;89.41;100791.11;104424;1273;97927;-77
2023/02/22 05:53:50;;;;;;;11.30;5.30;;;;;;;2.83;89.37;100798.06;104464;1274;98542;-75
2023/02/22 05:56:36;;;;;;;7.90;4.30;;;;;;;2.83;89.35;100797.68;104503;1273;101477;-75
2023/02/22 05:59:20;;;;;;;10.80;4.10;;;;;;;2.84;89.43;100797.40;104459;1274;100167;-77
2023/02/22 06:02:05;;;;;;;13.60;4.70;;;;;;;2.84;89.48;100800.41;104318;1273;98763;-76
2023/02/22 06:04:50;;;;;;;10.80;4.60;;;;;;;2.85;89.57;100802.26;104350;1277;99162;-76
2023/02/22 06:07:35;;;;;;;7.70;4.00;;;;;;;2.86;89.60;100804.84;104454;1272;97991;-76
2023/02/22 06:10:20;;;;;;;9.00;4.70;;;;;;;2.87;89.72;100806.66;104465;1273;103096;-77
2023/02/22 06:13:05;;;;;;;9.70;4.20;;;;;;;2.89;89.61;100814.10;104360;1287;99098;-76
2023/02/22 06:15:50;;;;;;;7.80;3.70;;;;;;;2.89;89.56;100817.92;104411;1277;98160;-77
2023/02/22 06:18:35;;;;;;;7.90;3.80;;;;;;;2.91;89.75;100824.83;104433;1286;97991;-78
2023/02/22 06:21:20;;;;;;;13.10;4.50;;;;;;;2.93;89.90;100822.59;104451;1273;98298;-76
2023/02/22 06:24:05;;;;;;;7.30;4.00;;;;;;;2.95;90.01;100826.11;104439;1277;101388;-79
2023/02/22 06:26:59;;;;;;;9.80;4.50;;;;;;;2.96;90.07;100828.13;104397;1288;99819;-79
2023/02/22 06:29:45;;;;;;;10.10;3.90;;;;;;;2.99;90.20;100830.88;104473;1273;98011;-77
2023/02/22 06:32:30;;;;;;;14.30;4.80;;;;;;;3.01;90.30;100831.87;104353;1277;97901;-78
2023/02/22 06:35:16;;;;;;;9.20;4.80;;;;;;;3.04;90.47;100832.85;104406;1274;98686;-77
2023/02/22 06:38:01;;;;;;;8.40;4.30;;;;;;;3.06;90.50;100837.27;104312;1288;102596;-77
2023/02/22 06:40:46;;;;;;;7.30;3.80;;;;;;;3.08;90.50;100842.75;104445;1278;100362;-77
2023/02/22 06:43:30;;;;;;;8.60;2.90;;;;;;;3.07;90.34;100854.63;104401;1274;98061;-78
2023/02/22 06:46:15;;;;;;;9.30;2.80;;;;;;;3.05;90.18;100860.30;104401;1275;99250;-77
2023/02/22 06:48:59;;;;;;;7.20;3.80;;;;;;;3.02;90.00;100856.12;104428;1277;98522;-77
2023/02/22 06:51:45;;;;;;;7.50;3.00;;;;;;;2.98;90.15;100861.13;104363;1276;101455;-78
2023/02/22 06:54:30;;;;;;;8.40;3.40;;;;;;;2.93;90.52;100864.73;104381;1288;99043;-76
2023/02/22 06:57:16;;;;;;;6.20;3.10;;;;;;;2.93;90.73;100870.36;104399;1277;99024;-79
2023/02/22 07:00:02;;;;;;;8.10;4.00;;;;;;;2.93;90.81;100874.75;104428;1276;98010;-77
2023/02/22 07:02:48;;;;;;;7.10;3.70;;;;;;;2.93;90.89;100877.58;104414;1276;98622;-76
2023/02/22 07:05:32;;;;;;;11.80;4.30;;;;;;;2.95;91.21;100880.95;104400;1280;101292;-76
2023/02/22 07:08:17;;;;;;;10.10;4.50;;;;;;;2.94;91.19;100880.33;104399;1277;99270;-76
2023/02/22 07:11:02;;;;;;;13.00;4.60;;;;;;;2.90;91.08;100881.91;104474;1273;98003;-76
2023/02/22 07:13:47;;;;;;;13.20;5.10;;;;;;;2.88;91.47;100879.08;104433;1276;99102;-76
2023/02/22 07:16:33;;;;;;;8.50;3.80;;;;;;;2.92;91.88;100882.25;104213;1280;97927;-75
2023/02/22 07:19:18;;;;;;;8.40;4.00;;;;;;;2.97;91.86;100889.62;104479;1273;102620;-77
2023/02/22 07:22:03;;;;;;;10.40;3.80;;;;;;;2.98;92.11;100896.05;104482;1276;100247;-75
2023/02/22 07:24:47;;;;;;;8.30;4.40;;;;;;;3.00;92.29;100898.11;104382;1275;98523;-75
2023/02/22 07:27:35;;;;;;;9.90;4.40;;;;;;;2.99;92.29;100898.64;104403;1277;97966;-76
2023/02/22 07:30:26;;;;;;;9.40;4.70;;;;;;;2.95;92.24;100896.85;104479;1273;99680;-78
2023/02/22 07:33:12;;;;;;;8.00;4.50;;;;;;;2.94;92.40;100899.93;104383;1277;102601;-77
2023/02/22 07:35:56;;;;;;;8.80;4.60;;;;;;;2.93;92.43;100896.48;104145;1279;99083;-77
2023/02/22 07:38:41;;;;;;;11.90;4.80;;;;;;;2.91;92.65;100894.89;104344;1274;98063;-77
2023/02/22 07:41:26;;;;;;;10.90;4.40;;;;;;;2.90;92.84;100894.78;104353;1277;97987;-77
2023/02/22 07:44:11;;;;;;;8.40;4.60;;;;;;;2.93;93.26;100895.36;104423;1273;98440;-78
2023/02/22 07:46:56;;;;;;;9.50;4.60;;;;;;;2.99;93.29;100895.26;104419;1273;101464;-76
2023/02/22 07:49:41;;;;;;;9.30;4.80;;;;;;;3.04;93.44;100896.40;104477;1273;99371;-77
2023/02/22 07:52:26;;;;;;;11.50;4.20;;;;;;;3.10;93.23;100899.39;104445;1280;98070;-77
2023/02/22 07:55:23;;;;;;;9.00;4.70;;;;;;;3.15;92.76;100901.61;104767;1273;97970;-84
2023/02/22 07:58:12;;;;;;;11.50;4.20;;;;;;;3.21;92.47;100895.09;105172;1274;98561;-82
2023/02/22 08:01:00;;;;;;;9.50;4.80;;;;;;;3.23;92.04;100895.79;105064;1279;102634;-83
2023/02/22 08:03:46;;;;;;;8.50;4.60;;;;;;;3.25;91.79;100898.14;104925;1273;100251;-85
2023/02/22 08:06:31;;;;;;;6.80;3.80;;;;;;;3.25;91.50;100896.48;105175;1279;99050;-85
2023/02/22 08:09:17;;;;;;;6.80;3.50;;;;;;;3.22;90.86;100896.07;105095;1276;97815;-80
2023/02/22 08:12:02;;;;;;;6.80;4.20;;;;;;;3.20;90.92;100902.64;105491;1273;97906;-86
2023/02/22 08:14:48;;;;;;;9.40;3.70;;;;;;;3.20;91.05;100903.52;103926;1274;101350;-76
2023/02/22 08:17:33;;;;;;;8.30;4.30;;;;;;;3.21;90.96;100903.20;104492;1273;99257;-77
2023/02/22 08:20:18;;;;;;;7.70;4.10;;;;;;;3.23;90.84;100908.50;104328;1273;99475;-75
2023/02/22 08:23:04;;;;;;;5.60;3.20;;;;;;;3.26;90.74;100908.62;104168;1273;97879;-77
2023/02/22 08:25:50;;;;;;;7.60;3.60;;;;;;;3.27;90.73;100912.73;104092;1273;98428;-77
2023/02/22 08:28:34;;;;;;;6.90;2.90;;;;;;;3.29;90.37;100913.79;104085;1273;101570;-76
2023/02/22 08:31:19;;;;;;;5.00;2.50;;;;;;;3.32;89.85;100913.89;105140;1273;100536;-80
2023/02/22 08:34:04;;;;;;;4.90;2.20;;;;;;;3.34;89.26;100916.04;105269;1276;99108;-80
2023/02/22 08:36:48;;;;;;;5.00;2.20;;;;;;;3.33;87.86;100919.33;105263;1280;98010;-80
2023/02/22 08:39:33;;;;;;;3.20;1.90;;;;;;;3.31;87.54;100920.55;104486;1273;98020;-78
2023/02/22 08:42:18;;;;;;;3.60;2.10;;;;;;;3.32;87.56;100921.27;104950;1278;103475;-77
2023/02/22 08:45:03;;;;;;;3.10;1.90;;;;;;;3.33;86.95;100925.23;104348;1273;100513;-77
2023/02/22 08:47:48;;;;;;;3.20;1.90;;;;;;;3.33;86.64;100925.79;104469;1276;98013;-77
2023/02/22 08:50:34;;;;;;;4.70;2.10;;;;;;;3.33;86.45;100924.56;104441;1275;98636;-77
2023/02/22 08:53:19;;;;;;;4.20;2.00;;;;;;;3.36;85.78;100926.76;104626;1273;98104;-80
2023/02/22 08:56:04;;;;;;;2.80;2.10;;;;;;;3.37;85.22;100929.49;104494;1276;102959;-78
2023/02/22 08:58:49;;;;;;;4.00;2.40;;;;;;;3.38;84.71;100930.50;104505;1273;99137;-77
2023/02/22 09:01:34;;;;;;;4.10;2.40;;;;;;;3.41;84.90;100930.59;104391;1280;99092;-80
2023/02/22 09:04:18;;;;;;;4.20;2.70;;;;;;;3.46;84.90;100935.08;104484;1274;97970;-79
2023/02/22 09:07:03;;;;;;;4.80;2.40;;;;;;;3.46;84.38;100939.88;105102;1274;97054;-77
2023/02/22 09:09:48;;;;;;;4.70;2.90;;;;;;;3.47;84.42;100939.94;104526;1273;101432;-76
2023/02/22 09:12:33;;;;;;;5.10;3.00;;;;;;;3.50;84.40;100943.71;104421;1273;99844;-76
2023/02/22 09:15:18;;;;;;;3.90;2.20;;;;;;;3.53;84.17;100944.73;104899;1275;99031;-83
2023/02/22 09:18:04;;;;;;;3.60;2.40;;;;;;;3.54;83.58;100941.05;105213;1273;97970;-83
2023/02/22 09:21:20;;;;;;;;;;;;;;;;;;;;;
2023/02/22 09:24:07;;;;;;;3.60;2.20;;;;;;;3.53;83.16;100940.31;105461;1273;101395;-86
2023/02/22 09:26:53;;;;;;;3.50;2.50;;;;;;;3.54;82.84;100941.96;104828;1280;98943;-76
2023/02/22 09:29:38;;;;;;;4.60;2.70;;;;;;;3.54;82.52;100947.05;104703;1276;98565;-85
2023/02/22 09:32:27;;;;;;;2.80;2.40;;;;;;;3.57;82.32;100947.34;104685;1273;98009;-77
2023/02/22 09:35:13;;;;;;;3.60;2.30;;;;;;;3.61;82.24;100950.56;104311;1273;98105;-77
2023/02/22 09:37:59;;;;;;;4.40;2.60;;;;;;;3.61;81.53;100949.27;104357;1273;102235;-78
2023/02/22 09:40:54;;;;;;;2.90;2.20;;;;;;;3.62;81.69;100955.69;104455;1273;100422;-78
2023/02/22 09:43:52;;;;;;;5.00;2.60;;;;;;;3.60;81.47;100956.60;105039;1278;98052;-78
2023/02/22 09:46:44;;;;;;;2.70;2.50;;;;;;;3.62;81.92;100959.79;104321;1274;98024;-78
2023/02/22 09:49:47;;;;;;;3.70;2.30;;;;;;;3.62;81.35;100962.75;104466;1276;96261;-79
2023/02/22 09:52:40;;;;;;;4.30;3.00;;;;;;;3.59;81.35;100961.81;104428;1273;101443;-78
2023/02/22 09:55:35;;;;;;;4.10;2.60;;;;;;;3.63;81.26;100961.98;104465;1274;99272;-78
2023/02/22 09:58:37;;;;;;;4.20;2.20;;;;;;;3.66;81.01;100959.21;104878;1274;98479;-79
2023/02/22 10:01:31;;;;;;;4.00;2.20;;;;;;;3.72;81.00;100951.06;104868;1274;97930;-80
2023/02/22 10:04:40;;;;;;;2.90;2.10;;;;;;;3.79;80.15;100949.08;104995;1274;99131;-81
2023/02/22 10:07:30;;;;;;;2.30;1.80;;;;;;;3.83;79.51;100945.91;104862;1273;101331;-78
2023/02/22 10:10:17;;;;;;;4.00;2.60;;;;;;;3.89;79.37;100943.95;105170;1273;99295;-79
2023/02/22 10:13:33;;;;;;;6.00;2.80;;;;;;;3.92;79.24;100944.91;104549;1279;98545;-77
2023/02/22 10:16:45;;;;;;;4.90;2.80;;;;;;;3.90;78.55;100945.79;104599;1279;97992;-85
2023/02/22 10:19:53;;;;;;;5.40;3.50;;;;;;;3.79;78.20;100948.77;105415;1273;97988;-85
2023/02/22 10:22:50;;;;;;;7.40;4.00;;;;;;;3.62;78.67;100951.66;105464;1277;103976;-79
2023/02/22 10:25:38;;;;;;;5.90;4.10;;;;;;;3.53;79.23;100959.70;105142;1274;101339;-83
2023/02/22 10:28:30;;;;;;;7.90;4.20;;;;;;;3.45;79.18;100961.45;105753;1273;98178;-87
2023/02/22 10:31:23;;;;;;;8.90;4.30;;;;;;;3.37;79.24;100960.07;104718;1274;97940;-78
2023/02/22 10:34:14;;;;;;;7.60;3.90;;;;;;;3.28;79.30;100962.05;104555;1275;97970;-80
2023/02/22 10:37:18;;;;;;;7.00;4.40;;;;;;;3.19;78.59;100962.70;104824;1277;101327;-80
2023/02/22 10:40:30;;;;;;;8.20;4.50;;;;;;;3.03;77.89;100966.14;104625;1279;101343;-80
2023/02/22 10:43:15;;;;;;;8.30;4.60;;;;;;;2.90;77.74;100969.20;104797;1276;97990;-79
2023/02/22 10:46:04;;;;;;;8.50;5.30;;;;;;;2.80;77.71;100974.64;104800;1273;98044;-80
2023/02/22 10:48:53;;;;;;;7.80;5.00;;;;;;;2.73;77.66;100975.25;104845;1276;100818;-80
2023/02/22 10:51:38;;;;;;;6.40;3.90;;;;;;;2.67;77.40;100980.14;104775;1276;102690;-81
2023/02/22 10:54:29;;;;;;;9.20;4.60;;;;;;;2.65;77.58;100979.61;104944;1273;101367;-79
2023/02/22 10:57:21;;;;;;;6.60;4.10;;;;;;;2.63;77.46;100976.98;104904;1274;98037;-80
2023/02/22 11:00:13;;;;;;;9.50;4.40;;;;;;;2.67;78.23;100974.16;104723;1280;99254;-81
2023/02/22 11:03:00;;;;;;;7.10;4.50;;;;;;;2.84;78.68;100970.98;104855;1276;98023;-79
2023/02/22 11:05:45;;;;;;;7.90;4.20;;;;;;;2.99;79.04;100973.02;104975;1273;103013;-80
2023/02/22 11:08:32;;;;;;;8.10;4.30;;;;;;;3.17;79.01;100976.55;104782;1273;99844;-79
2023/02/22 11:11:23;;;;;;;7.50;4.60;;;;;;;3.29;78.49;100974.54;104691;1280;98003;-81
2023/02/22 11:14:09;;;;;;;6.90;4.20;;;;;;;3.45;78.86;100974.20;104679;1277;97931;-79
2023/02/22 11:16:57;;;;;;;7.50;4.70;;;;;;;3.63;78.70;100976.30;104605;1272;98661;-80
2023/02/22 11:19:50;;;;;;;6.60;4.50;;;;;;;3.68;77.52;100975.81;104649;1276;101355;-79
2023/02/22 11:22:39;;;;;;;8.20;4.40;;;;;;;3.62;76.30;100973.40;104628;1273;99915;-80
2023/02/22 11:25:29;;;;;;;6.00;3.70;;;;;;;3.50;75.81;100977.98;105136;1274;97931;-79
2023/02/22 11:28:29;;;;;;;7.50;4.40;;;;;;;3.38;75.66;100978.49;104662;1273;97897;-80
2023/02/22 11:31:21;;;;;;;8.90;5.10;;;;;;;3.29;75.39;100978.23;104664;1273;97915;-79
2023/02/22 11:34:30;;;;;;;10.30;5.50;;;;;;;3.20;75.48;100980.73;104662;1274;102697;-85
2023/02/22 11:37:28;;;;;;;7.90;4.60;;;;;;;3.14;75.79;100982.13;105012;1272;99370;-84
2023/02/22 11:40:18;;;;;;;6.50;4.40;;;;;;;3.09;75.85;100981.48;105557;1273;97976;-84
2023/02/22 11:43:16;;;;;;;8.50;5.30;;;;;;;3.10;76.37;100980.02;104804;1279;97972;-77
2023/02/22 11:46:07;;;;;;;8.90;5.10;;;;;;;3.16;76.55;100979.85;104633;1277;98448;-84
2023/02/22 11:49:04;;;;;;;7.00;4.20;;;;;;;3.22;76.57;100978.84;105242;1273;103606;-77
2023/02/22 11:52:27;;;;;;;8.10;4.80;;;;;;;3.24;76.63;100974.76;104468;1274;100676;-77
2023/02/22 11:55:22;;;;;;;12.40;5.60;;;;;;;3.24;75.97;100979.52;104398;1274;97991;-77
2023/02/22 11:58:28;;;;;;;7.60;4.30;;;;;;;3.23;75.54;100989.20;104478;1273;98113;-77
2023/02/22 12:01:28;;;;;;;7.90;5.80;;;;;;;3.14;75.08;100992.02;104492;1276;97796;-77
2023/02/22 12:04:28;;;;;;;8.80;4.10;;;;;;;3.10;75.08;100990.80;104476;1273;101482;-77
2023/02/22 12:07:38;;;;;;;7.10;4.10;;;;;;;3.10;75.25;100989.91;104337;1273;100563;-78
2023/02/22 12:10:47;;;;;;;6.70;4.70;;;;;;;3.11;75.35;100988.95;104969;1276;98868;-79
2023/02/22 12:13:49;;;;;;;8.80;5.00;;;;;;;3.14;75.50;100987.94;105004;1274;98005;-78
2023/02/22 12:17:02;;;;;;;7.30;4.50;;;;;;;3.12;74.90;100986.38;105532;1274;98576;-79
2023/02/22 12:19:50;;;;;;;7.20;4.30;;;;;;;3.07;74.80;100989.13;104987;1273;101456;-79
2023/02/22 12:22:44;;;;;;;6.40;4.50;;;;;;;3.07;74.61;100990.34;104874;1274;99711;-79
2023/02/22 12:25:38;;;;;;;8.80;5.30;;;;;;;3.05;74.47;100995.80;104949;1276;98791;-79
2023/02/22 12:28:35;;;;;;;8.00;4.90;;;;;;;3.02;74.60;100999.23;104839;1273;99348;-79
2023/02/22 12:31:27;;;;;;;8.50;4.60;;;;;;;3.05;74.81;100994.54;105032;1277;97802;-76
2023/02/22 12:34:31;;;;;;;11.40;4.90;;;;;;;3.08;74.69;100993.27;104681;1273;102895;-77
2023/02/22 12:37:39;;;;;;;7.10;4.00;;;;;;;3.04;74.10;100996.39;104485;1276;100780;-77
2023/02/22 12:40:34;;;;;;;11.10;4.60;;;;;;;2.99;73.79;101003.14;104398;1273;98228;-77
2023/02/22 12:43:29;;;;;;;8.20;4.80;;;;;;;2.95;73.34;101007.09;104533;1273;97962;-77
2023/02/22 12:46:40;;;;;;;6.40;4.10;;;;;;;2.93;73.16;101007.09;104637;1274;98485;-78
2023/02/22 12:49:35;;;;;;;7.80;4.20;;;;;;;2.93;73.15;101011.64;104551;1273;101402;-77
2023/02/22 12:52:44;;;;;;;10.60;5.20;;;;;;;2.91;73.16;101016.52;104598;1274;99487;-78
2023/02/22 12:55:41;;;;;;;7.80;4.90;;;;;;;2.91;72.77;101014.62;104524;1274;97905;-78
2023/02/22 12:58:38;;;;;;;8.10;4.70;;;;;;;2.92;72.60;101012.27;104532;1274;98118;-77
2023/02/22 13:01:29;;;;;;;6.50;3.70;;;;;;;2.93;72.79;101017.98;104558;1273;99099;-87
2023/02/22 13:04:15;;;;;;;9.60;4.50;;;;;;;2.91;72.22;101016.41;105328;1274;102414;-83
2023/02/22 13:07:09;;;;;;;5.70;3.90;;;;;;;2.87;71.87;101015.02;104879;1273;98954;-81
2023/02/22 13:10:19;;;;;;;7.50;4.20;;;;;;;2.82;71.82;101018.93;104978;1280;97969;-81